Time;durP1;ratioP1;P1;durP2;ratioP2;P2;SDS_P1;SDS_P2;PMS_P1;PMS_P2;Temp;Humidity;BMP_temperature;BMP_pressure;BME280_temperature;BME280_humidity;BME280_pressure;Samples;Min_cycle;Max_cycle;Signal;HPM_P1;HPM_P2
2024/04/01 00:00:46;;;;;;;17.23;10.50;;;;;;;11.05;76.05;98756.22;5112180;28;20500;-66
2024/04/01 00:03:12;;;;;;;17.50;10.63;;;;;;;11.07;75.97;98758.63;5093925;28;20070;-66
2024/04/01 00:05:38;;;;;;;20.13;10.90;;;;;;;11.07;76.08;98750.66;5093852;28;20043;-66
2024/04/01 00:08:04;;;;;;;19.00;11.05;;;;;;;11.06;75.89;98747.22;5111584;28;20099;-68
2024/04/01 00:10:29;;;;;;;20.60;11.10;;;;;;;11.05;75.85;98756.22;5112048;28;20055;-69
2024/04/01 00:12:58;;;;;;;20.23;11.18;;;;;;;11.02;76.49;98742.66;5094097;28;20065;-68
2024/04/01 00:15:27;;;;;;;14.02;10.73;;;;;;;11.02;76.31;98745.31;5076413;28;20112;-66
2024/04/01 00:17:53;;;;;;;21.83;10.85;;;;;;;11.00;76.72;98747.41;5094162;28;20653;-66
2024/04/01 00:20:19;;;;;;;19.75;10.82;;;;;;;10.96;76.37;98749.78;5112005;28;20047;-67
2024/04/01 00:22:45;;;;;;;18.20;11.00;;;;;;;10.94;76.47;98743.94;5093702;28;20036;-66
2024/04/01 00:25:10;;;;;;;19.23;11.15;;;;;;;10.93;76.71;98742.34;5059144;28;20132;-66
2024/04/01 00:27:36;;;;;;;21.25;11.65;;;;;;;10.88;76.97;98739.66;5093586;28;20073;-71
2024/04/01 00:30:03;;;;;;;18.65;11.95;;;;;;;10.86;76.73;98744.44;5111681;28;20043;-66
2024/04/01 00:32:33;;;;;;;19.30;11.77;;;;;;;10.81;77.64;98734.56;5112200;28;20039;-68
2024/04/01 00:34:58;;;;;;;17.20;11.68;;;;;;;10.75;77.44;98732.94;5111455;28;20052;-66
2024/04/01 00:37:24;;;;;;;23.88;11.68;;;;;;;10.68;77.74;98727.88;5110965;28;20420;-67
2024/04/01 00:39:50;;;;;;;19.92;12.20;;;;;;;10.66;77.96;98727.31;5111842;28;20050;-66
2024/04/01 00:42:15;;;;;;;21.73;11.90;;;;;;;10.63;78.42;98727.03;5111736;28;20043;-66
2024/04/01 00:44:41;;;;;;;19.15;11.68;;;;;;;10.60;78.45;98722.22;5093389;28;20125;-66
2024/04/01 00:47:07;;;;;;;20.75;11.95;;;;;;;10.55;79.25;98730.13;5111883;28;20056;-66
2024/04/01 00:49:33;;;;;;;20.92;11.98;;;;;;;10.54;78.25;98720.59;5111820;28;20136;-67
2024/04/01 00:51:59;;;;;;;17.13;11.73;;;;;;;10.52;79.29;98725.34;5111998;28;20081;-67
2024/04/01 00:54:24;;;;;;;25.15;13.02;;;;;;;10.49;78.99;98721.34;5111986;28;20115;-66
2024/04/01 00:56:54;;;;;;;19.48;13.02;;;;;;;10.45;79.09;98725.56;5093674;28;20138;-66
2024/04/01 00:59:20;;;;;;;26.45;12.77;;;;;;;10.43;79.83;98720.50;5093514;28;20028;-66
2024/04/01 01:01:46;;;;;;;25.40;12.85;;;;;;;10.43;79.36;98711.75;5093768;28;20039;-66
2024/04/01 01:04:12;;;;;;;22.70;13.13;;;;;;;10.40;80.28;98712.25;5093501;28;20042;-64
2024/04/01 01:06:38;;;;;;;21.30;13.85;;;;;;;10.38;80.11;98712.53;5076640;28;20142;-66
2024/04/01 01:09:07;;;;;;;27.88;14.05;;;;;;;10.35;79.92;98709.56;5076591;28;20039;-67
2024/04/01 01:11:33;;;;;;;26.02;13.02;;;;;;;10.34;80.81;98705.31;5093586;28;20093;-66
2024/04/01 01:14:00;;;;;;;24.58;13.55;;;;;;;10.34;80.25;98703.47;5111514;28;20035;-66
2024/04/01 01:16:26;;;;;;;24.25;13.63;;;;;;;10.32;80.43;98705.56;5093626;28;20077;-65
2024/04/01 01:18:53;;;;;;;27.38;14.32;;;;;;;10.33;80.67;98714.34;5112056;28;20043;-65
2024/04/01 01:21:19;;;;;;;26.80;14.50;;;;;;;10.33;81.27;98703.72;5097576;28;20119;-65
2024/04/01 01:23:44;;;;;;;24.42;14.00;;;;;;;10.31;80.85;98703.19;5115681;28;20488;-66
2024/04/01 01:26:10;;;;;;;23.30;14.18;;;;;;;10.24;81.50;98698.88;5097587;28;20110;-66
2024/04/01 01:28:36;;;;;;;23.38;14.52;;;;;;;10.28;81.59;98695.75;5115571;28;20104;-67
2024/04/01 01:31:02;;;;;;;26.98;13.48;;;;;;;10.27;81.04;98694.94;5080430;28;20074;-67
2024/04/01 01:33:28;;;;;;;22.80;13.77;;;;;;;10.23;81.63;98691.97;5115767;28;20070;-66
2024/04/01 01:35:54;;;;;;;26.52;14.50;;;;;;;10.28;81.53;98693.88;5115396;28;20188;-65
2024/04/01 01:38:20;;;;;;;25.13;13.95;;;;;;;10.28;80.78;98691.22;5115689;28;20567;-66
2024/04/01 01:40:46;;;;;;;21.55;14.63;;;;;;;10.24;82.00;98690.91;5115639;28;20309;-66
2024/04/01 01:43:12;;;;;;;28.38;14.65;;;;;;;10.25;81.79;98691.72;5115322;28;20056;-64
2024/04/01 01:45:37;;;;;;;31.70;15.13;;;;;;;10.24;81.79;98698.06;5114963;28;20078;-65
2024/04/01 01:48:07;;;;;;;23.75;13.30;;;;;;;10.21;81.76;98695.91;5096686;28;20173;-66
2024/04/01 01:50:33;;;;;;;26.33;14.23;;;;;;;10.20;81.91;98692.44;5097135;28;20079;-65
2024/04/01 01:52:59;;;;;;;27.08;14.52;;;;;;;10.21;81.50;98691.41;5115419;28;20746;-66
2024/04/01 01:55:25;;;;;;;20.38;12.35;;;;;;;10.20;82.34;98681.84;5096720;28;20046;-66
2024/04/01 01:57:52;;;;;;;21.13;12.57;;;;;;;10.21;81.94;98680.81;5115297;28;20035;-65
2024/04/01 02:00:18;;;;;;;26.05;14.10;;;;;;;10.20;82.18;98675.75;5115173;28;20044;-67
2024/04/01 02:02:44;;;;;;;25.95;12.30;;;;;;;10.22;82.54;98671.03;5096713;28;20161;-67
2024/04/01 02:05:10;;;;;;;20.30;12.73;;;;;;;10.21;81.82;98672.88;5096719;28;20077;-67
2024/04/01 02:07:36;;;;;;;21.73;12.20;;;;;;;10.20;82.43;98681.84;5096888;28;20044;-68
2024/04/01 02:10:02;;;;;;;23.02;12.23;;;;;;;10.20;82.14;98670.47;5096557;28;20048;-67
2024/04/01 02:12:31;;;;;;;22.42;12.35;;;;;;;10.20;82.43;98673.13;5097138;28;20042;-66
2024/04/01 02:14:57;;;;;;;27.35;12.88;;;;;;;10.18;81.91;98657.50;5114661;28;20492;-67
2024/04/01 02:17:23;;;;;;;24.15;12.80;;;;;;;10.16;82.07;98662.22;5096830;28;20054;-67
2024/04/01 02:19:50;;;;;;;22.75;12.65;;;;;;;10.15;82.71;98663.28;5114331;28;20036;-66
2024/04/01 02:22:19;;;;;;;22.95;12.23;;;;;;;10.14;82.47;98650.28;5079725;28;20042;-67
2024/04/01 02:24:45;;;;;;;23.08;12.30;;;;;;;10.12;82.98;98658.50;5114649;28;20040;-66
2024/04/01 02:27:11;;;;;;;27.55;12.50;;;;;;;10.11;82.77;98653.44;5114654;28;20047;-68
2024/04/01 02:29:40;;;;;;;20.80;12.35;;;;;;;10.13;82.76;98648.69;5096564;28;20126;-66
2024/04/01 02:32:06;;;;;;;27.17;13.75;;;;;;;10.13;82.75;98646.06;5095496;28;20044;-67
2024/04/01 02:34:32;;;;;;;24.92;12.60;;;;;;;10.14;83.09;98652.94;5095968;28;20036;-66
2024/04/01 02:36:58;;;;;;;26.35;12.60;;;;;;;10.11;83.27;98635.69;5113635;28;20047;-67
2024/04/01 02:39:24;;;;;;;26.85;13.27;;;;;;;10.12;82.88;98636.53;5114203;28;20040;-65
2024/04/01 02:41:51;;;;;;;28.70;13.00;;;;;;;10.10;82.99;98634.13;5079264;28;20039;-64
2024/04/01 02:44:17;;;;;;;38.53;15.57;;;;;;;10.10;82.73;98633.31;5114326;28;20043;-65
2024/04/01 02:46:45;;;;;;;22.05;12.38;;;;;;;10.10;83.01;98631.47;5084000;28;20133;-67
2024/04/01 02:49:11;;;;;;;22.85;12.95;;;;;;;10.12;83.28;98625.94;5073685;28;20041;-67
2024/04/01 02:51:39;;;;;;;20.23;12.25;;;;;;;10.13;83.13;98622.22;5072400;28;20044;-66
2024/04/01 02:54:06;;;;;;;31.50;18.55;;;;;;;10.17;83.00;98615.34;5072178;28;20086;-65
2024/04/01 02:56:32;;;;;;;30.90;17.90;;;;;;;10.20;82.88;98612.19;5072307;28;20131;-66
2024/04/01 02:59:10;;;;;;;20.08;12.23;;;;;;;10.27;82.82;98615.47;5055650;28;20068;-66
2024/04/01 03:01:39;;;;;;;25.48;12.57;;;;;;;10.28;82.64;98601.16;5055975;28;20052;-65
2024/04/01 03:04:06;;;;;;;21.25;11.68;;;;;;;10.38;81.96;98605.72;5073051;28;20039;-66
2024/04/01 03:06:32;;;;;;;20.65;11.93;;;;;;;10.41;81.59;98605.22;5071530;28;20052;-66
2024/04/01 03:08:58;;;;;;;21.73;12.00;;;;;;;10.42;81.61;98610.28;5072971;28;20041;-67
2024/04/01 03:11:24;;;;;;;24.33;11.50;;;;;;;10.47;81.56;98596.28;5073487;28;20574;-66
2024/04/01 03:13:50;;;;;;;17.92;10.70;;;;;;;10.49;80.97;98596.00;5073210;28;20085;-67
2024/04/01 03:16:16;;;;;;;24.55;11.45;;;;;;;10.54;81.19;98607.44;5072994;28;20429;-67
2024/04/01 03:18:43;;;;;;;26.75;12.48;;;;;;;10.59;81.01;98601.34;5072782;28;20041;-65
2024/04/01 03:21:09;;;;;;;18.73;11.50;;;;;;;10.54;80.05;98593.41;5073106;28;20048;-66
2024/04/01 03:23:35;;;;;;;20.13;10.95;;;;;;;10.60;80.11;98602.97;5072806;28;20528;-66
2024/04/01 03:26:00;;;;;;;27.23;10.98;;;;;;;10.61;80.16;98597.41;5071569;28;20037;-67
2024/04/01 03:28:26;;;;;;;25.23;12.23;;;;;;;10.64;80.33;98593.44;5071350;28;20099;-67
2024/04/01 03:30:53;;;;;;;26.38;11.43;;;;;;;10.68;80.15;98594.53;5071540;28;20045;-65
2024/04/01 03:33:19;;;;;;;20.27;10.75;;;;;;;10.70;79.45;98587.09;5071181;28;20033;-66
2024/04/01 03:35:45;;;;;;;21.77;11.23;;;;;;;10.77;79.77;98579.75;5072615;28;20051;-66
2024/04/01 03:38:11;;;;;;;20.05;11.07;;;;;;;10.80;79.79;98578.44;5072682;28;20040;-66
2024/04/01 03:40:39;;;;;;;24.38;10.77;;;;;;;10.84;79.21;98571.53;5072233;28;20152;-66
2024/04/01 03:43:08;;;;;;;20.40;10.75;;;;;;;10.87;78.80;98576.31;5054635;28;20040;-66
2024/04/01 03:45:35;;;;;;;24.77;10.17;;;;;;;10.88;78.88;98581.38;5072609;28;20040;-65
2024/04/01 03:48:02;;;;;;;23.48;10.50;;;;;;;10.85;78.27;98576.59;5110018;28;20062;-66
2024/04/01 03:50:28;;;;;;;21.55;10.50;;;;;;;10.90;77.98;98578.47;5094584;28;20044;-66
2024/04/01 03:52:54;;;;;;;20.55;11.40;;;;;;;10.94;77.92;98568.91;5060986;28;20043;-67
2024/04/01 03:55:20;;;;;;;22.60;11.05;;;;;;;10.95;77.50;98565.22;5113006;28;20489;-67
2024/04/01 03:57:46;;;;;;;18.90;10.25;;;;;;;11.01;77.86;98571.34;5112943;28;20039;-66
2024/04/01 04:00:14;;;;;;;25.27;11.00;;;;;;;11.05;76.86;98575.88;5077634;28;20043;-66
2024/04/01 04:02:42;;;;;;;23.30;11.02;;;;;;;11.06;76.99;98574.81;5077574;28;20412;-68
2024/04/01 04:05:11;;;;;;;28.30;10.13;;;;;;;11.13;76.90;98577.22;5094065;28;20573;-66
2024/04/01 04:07:38;;;;;;;23.35;10.45;;;;;;;11.19;76.41;98572.75;5093834;28;20047;-66
2024/04/01 04:10:05;;;;;;;24.00;10.32;;;;;;;11.22;76.30;98577.53;5077202;28;20055;-66
2024/04/01 04:12:32;;;;;;;19.70;10.07;;;;;;;11.26;75.58;98576.72;5112691;28;20229;-65
2024/04/01 04:15:04;;;;;;;25.05;10.82;;;;;;;11.30;75.18;98569.06;5094113;28;20230;-66
2024/04/01 04:17:32;;;;;;;22.30;10.30;;;;;;;11.37;75.04;98572.25;5077530;28;20504;-67
2024/04/01 04:19:59;;;;;;;22.80;9.50;;;;;;;11.42;74.93;98566.16;5094038;28;20032;-67
2024/04/01 04:22:24;;;;;;;20.05;9.93;;;;;;;11.45;74.04;98569.09;5111768;28;20054;-68
2024/04/01 04:24:50;;;;;;;18.45;9.90;;;;;;;11.52;73.90;98560.84;5092894;28;20043;-66
2024/04/01 04:27:16;;;;;;;16.75;9.60;;;;;;;11.54;73.41;98554.22;5111767;28;20426;-66
2024/04/01 04:29:42;;;;;;;29.05;10.27;;;;;;;11.58;73.38;98551.84;5111495;28;20054;-66
2024/04/01 04:32:12;;;;;;;20.65;9.90;;;;;;;11.62;72.84;98554.75;5111323;28;20071;-67
2024/04/01 04:34:41;;;;;;;20.58;9.90;;;;;;;11.68;72.61;98545.75;5111426;28;20039;-68
2024/04/01 04:37:07;;;;;;;21.02;9.80;;;;;;;11.73;72.30;98548.41;5094103;28;20042;-66
2024/04/01 04:39:36;;;;;;;22.98;10.00;;;;;;;11.76;71.55;98551.31;5092786;28;20124;-66
2024/04/01 04:42:02;;;;;;;27.23;10.32;;;;;;;11.79;71.42;98542.03;5093071;28;20044;-69
2024/04/01 04:44:29;;;;;;;20.95;10.82;;;;;;;11.89;70.92;98541.28;5111850;28;20038;-66
2024/04/01 04:46:58;;;;;;;19.73;9.98;;;;;;;11.90;70.65;98533.03;5111528;28;20059;-64
2024/04/01 04:49:25;;;;;;;21.50;10.23;;;;;;;11.92;70.55;98535.44;5072121;28;20123;-64
2024/04/01 04:51:51;;;;;;;17.88;9.75;;;;;;;11.97;69.95;98536.22;5040234;28;20040;-63
2024/04/01 04:54:17;;;;;;;19.00;9.93;;;;;;;12.02;69.55;98538.06;5065530;28;20427;-67
2024/04/01 04:56:43;;;;;;;19.17;9.50;;;;;;;12.10;69.46;98545.50;5109610;28;20055;-64
2024/04/01 04:59:11;;;;;;;18.55;9.18;;;;;;;12.11;68.60;98535.66;5091191;28;20046;-65
2024/04/01 05:01:37;;;;;;;18.30;10.02;;;;;;;12.17;68.45;98540.69;5074616;28;20039;-66
2024/04/01 05:04:04;;;;;;;26.05;9.13;;;;;;;12.24;68.08;98543.09;5108938;28;20044;-70
2024/04/01 05:06:34;;;;;;;20.20;10.48;;;;;;;12.25;67.71;98537.50;5109310;28;20528;-65
2024/04/01 05:09:00;;;;;;;;;;;;;;;12.31;67.52;98534.84;5124743;28;20039;-68
2024/04/01 05:11:27;;;;;;;19.50;8.77;;;;;;;12.34;67.17;98535.09;5110369;28;19924;-65
2024/04/01 05:13:53;;;;;;;21.15;8.82;;;;;;;12.42;66.78;98541.72;5093150;28;20140;-69
2024/04/01 05:16:18;;;;;;;17.23;8.80;;;;;;;12.46;66.18;98532.13;5076372;28;20040;-66
2024/04/01 05:18:46;;;;;;;17.58;8.85;;;;;;;12.53;66.18;98521.22;5111430;28;20122;-65
2024/04/01 05:21:12;;;;;;;15.60;7.43;;;;;;;12.52;65.74;98520.41;5093573;28;20043;-64
2024/04/01 05:23:38;;;;;;;18.15;9.35;;;;;;;12.58;65.42;98521.22;5111411;28;20093;-65
2024/04/01 05:26:08;;;;;;;15.25;8.32;;;;;;;12.70;64.85;98524.34;5111510;28;20039;-63
2024/04/01 05:28:35;;;;;;;16.27;8.20;;;;;;;12.76;64.71;98520.59;5076663;28;20061;-63
2024/04/01 05:31:01;;;;;;;23.13;8.80;;;;;;;12.82;64.24;98516.84;5111683;28;20062;-63
2024/04/01 05:33:33;;;;;;;21.50;8.48;;;;;;;12.89;63.80;98514.69;5076211;28;20071;-63
2024/04/01 05:36:04;;;;;;;18.27;8.32;;;;;;;13.01;63.62;98510.94;5077376;28;20054;-63
2024/04/01 05:38:30;;;;;;;18.35;8.10;;;;;;;13.10;63.04;98511.94;5093370;28;20075;-64
2024/04/01 05:40:55;;;;;;;16.15;8.40;;;;;;;13.14;63.02;98503.09;5093079;28;20071;-64
2024/04/01 05:43:21;;;;;;;20.15;8.77;;;;;;;13.27;62.30;98503.63;5092945;28;20039;-64
2024/04/01 05:45:49;;;;;;;22.35;9.30;;;;;;;13.31;61.78;98488.69;5092941;28;20092;-64
2024/04/01 05:48:19;;;;;;;19.75;9.07;;;;;;;13.43;61.38;98491.00;5075941;28;20042;-64
2024/04/01 05:50:51;;;;;;;17.80;8.40;;;;;;;13.54;61.10;98495.16;5092880;28;20535;-64
2024/04/01 05:53:18;;;;;;;17.42;7.97;;;;;;;13.59;60.87;98503.13;5110949;28;20047;-65
2024/04/01 05:55:43;;;;;;;14.85;8.30;;;;;;;13.62;60.09;98487.38;5092773;28;20058;-63
2024/04/01 05:58:10;;;;;;;22.65;8.13;;;;;;;13.69;60.02;98492.38;5111111;28;20040;-64
2024/04/01 06:00:36;;;;;;;23.13;8.50;;;;;;;13.75;59.63;98483.28;5127074;28;20444;-62
2024/04/01 06:03:02;;;;;;;20.25;8.30;;;;;;;13.74;59.41;98487.00;5093119;28;20036;-62
2024/04/01 06:05:30;;;;;;;15.23;7.55;;;;;;;13.78;59.53;98484.56;5110925;28;20316;-64
2024/04/01 06:07:56;;;;;;;22.88;8.95;;;;;;;13.79;59.30;98486.94;5114385;28;20463;-64
2024/04/01 06:10:22;;;;;;;18.92;8.10;;;;;;;13.82;59.02;98490.91;5087759;28;20073;-65
2024/04/01 06:12:48;;;;;;;19.85;8.38;;;;;;;13.93;58.91;98480.97;5091497;28;20071;-64
2024/04/01 06:15:14;;;;;;;17.73;7.95;;;;;;;14.07;58.38;98488.03;5113986;28;20381;-64
2024/04/01 06:17:40;;;;;;;19.85;8.18;;;;;;;14.18;57.88;98479.94;5095281;28;20034;-63
2024/04/01 06:20:07;;;;;;;36.60;20.27;;;;;;;14.24;58.07;98468.94;5095757;28;20039;-63
2024/04/01 06:22:33;;;;;;;17.35;7.95;;;;;;;14.34;57.63;98475.22;5121048;27;20032;-65
2024/04/01 06:24:58;;;;;;;17.98;8.20;;;;;;;14.37;57.15;98477.31;5114205;28;20511;-63
2024/04/01 06:27:24;;;;;;;21.10;8.07;;;;;;;14.39;57.27;98475.19;5114175;28;20044;-64
2024/04/01 06:29:50;;;;;;;17.50;8.32;;;;;;;14.41;57.26;98484.47;5114169;28;20108;-65
2024/04/01 06:32:16;;;;;;;20.98;8.05;;;;;;;14.50;57.15;98481.97;5094914;28;20070;-64
2024/04/01 06:34:41;;;;;;;29.20;15.10;;;;;;;14.58;56.58;98480.56;5113808;28;20027;-62
2024/04/01 06:37:07;;;;;;;18.35;8.75;;;;;;;14.66;56.18;98471.94;5113463;28;20081;-62
2024/04/01 06:39:33;;;;;;;18.80;7.70;;;;;;;14.66;56.40;98472.72;5113671;28;20040;-65
2024/04/01 06:41:59;;;;;;;21.98;7.78;;;;;;;14.72;56.21;98471.59;5095334;28;20118;-64
2024/04/01 06:44:24;;;;;;;19.75;7.65;;;;;;;14.73;55.63;98470.50;5112471;28;20126;-63
2024/04/01 06:46:50;;;;;;;22.85;7.50;;;;;;;14.80;55.22;98478.16;5113123;28;20405;-63
2024/04/01 06:49:16;;;;;;;24.63;8.93;;;;;;;14.85;55.04;98470.06;5077851;28;20035;-63
2024/04/01 06:51:42;;;;;;;13.98;7.50;;;;;;;14.89;55.03;98467.66;5113891;28;20461;-64
2024/04/01 06:54:08;;;;;;;26.77;7.78;;;;;;;14.95;55.31;98455.81;5095293;28;20134;-64
2024/04/01 06:56:33;;;;;;;18.60;7.00;;;;;;;15.01;54.63;98464.56;5095580;28;20039;-63
2024/04/01 06:58:59;;;;;;;22.23;7.95;;;;;;;15.03;55.16;98460.50;5095113;28;20058;-62
2024/04/01 07:01:25;;;;;;;20.73;7.18;;;;;;;15.03;54.53;98457.84;5113806;28;20044;-64
2024/04/01 07:03:51;;;;;;;30.17;9.38;;;;;;;15.06;54.99;98464.47;5094532;28;20040;-65
2024/04/01 07:06:18;;;;;;;21.25;7.90;;;;;;;15.06;54.79;98448.44;5070153;28;20508;-63
2024/04/01 07:08:44;;;;;;;20.70;8.05;;;;;;;15.12;54.50;98458.00;5112661;28;20134;-64
2024/04/01 07:11:09;;;;;;;20.88;7.68;;;;;;;15.12;53.96;98450.78;5094780;28;20477;-64
2024/04/01 07:13:35;;;;;;;22.90;6.80;;;;;;;15.20;53.93;98450.09;5094524;28;20079;-65
2024/04/01 07:16:01;;;;;;;19.90;7.63;;;;;;;15.14;53.96;98440.56;5113465;28;20077;-63
2024/04/01 07:18:28;;;;;;;22.77;7.30;;;;;;;15.28;53.28;98445.97;5094217;28;20067;-64
2024/04/01 07:20:54;;;;;;;23.08;7.38;;;;;;;15.38;53.67;98453.84;5113157;28;20075;-65
2024/04/01 07:23:20;;;;;;;21.23;7.90;;;;;;;15.44;53.76;98460.69;5094749;28;20381;-63
2024/04/01 07:25:46;;;;;;;17.17;7.47;;;;;;;15.48;53.53;98458.22;5077576;28;20046;-64
2024/04/01 07:28:12;;;;;;;27.65;10.98;;;;;;;15.50;53.41;98447.22;5093774;28;20032;-63
2024/04/01 07:30:38;;;;;;;22.20;7.18;;;;;;;15.60;52.80;98455.09;5112617;28;20032;-66
2024/04/01 07:33:04;;;;;;;14.40;6.88;;;;;;;15.66;52.65;98449.38;5116817;27;20055;-65
2024/04/01 07:35:30;;;;;;;25.73;8.50;;;;;;;15.73;52.20;98446.34;5112545;28;20032;-64
2024/04/01 07:37:56;;;;;;;19.83;7.82;;;;;;;15.77;52.28;98452.69;5094349;28;20081;-65
2024/04/01 07:40:21;;;;;;;18.05;7.03;;;;;;;15.79;51.92;98439.81;5112401;28;20045;-61
2024/04/01 07:42:47;;;;;;;21.80;8.43;;;;;;;15.89;51.65;98449.53;5074810;28;20506;-63
2024/04/01 07:45:13;;;;;;;20.63;6.82;;;;;;;15.95;51.32;98440.34;5112301;28;20396;-62
2024/04/01 07:47:39;;;;;;;14.35;6.28;;;;;;;16.02;51.15;98438.06;5111815;28;20428;-61
2024/04/01 07:50:06;;;;;;;20.67;6.95;;;;;;;16.10;50.88;98441.94;5094015;28;20126;-62
2024/04/01 07:52:32;;;;;;;25.17;9.32;;;;;;;16.06;50.73;98433.72;5111879;28;20032;-62
2024/04/01 07:54:58;;;;;;;21.77;7.38;;;;;;;16.12;50.53;98445.91;5093618;28;20762;-63
2024/04/01 07:57:30;;;;;;;21.55;7.10;;;;;;;16.22;50.46;98444.91;5091219;28;20044;-63
2024/04/01 07:59:58;;;;;;;21.65;7.18;;;;;;;16.32;50.09;98454.59;5112394;28;20038;-62
2024/04/01 08:02:25;;;;;;;20.27;6.63;;;;;;;16.38;50.00;98439.25;5076801;28;20046;-61
2024/04/01 08:04:51;;;;;;;16.25;6.28;;;;;;;16.46;49.87;98436.66;5112360;28;20069;-62
2024/04/01 08:07:17;;;;;;;17.98;6.88;;;;;;;16.51;49.80;98439.25;5093665;28;20038;-64
2024/04/01 08:09:43;;;;;;;21.27;10.43;;;;;;;16.59;49.53;98432.41;5093648;28;20459;-64
2024/04/01 08:12:08;;;;;;;22.05;6.80;;;;;;;16.60;49.27;98428.63;5093433;28;20381;-67
2024/04/01 08:14:36;;;;;;;15.30;6.22;;;;;;;16.64;49.28;98429.59;5092993;28;20413;-66
2024/04/01 08:17:02;;;;;;;15.82;6.28;;;;;;;16.68;49.11;98424.47;5093687;28;20047;-63
2024/04/01 08:19:29;;;;;;;26.38;6.65;;;;;;;16.69;49.02;98412.66;5111453;28;20031;-63
2024/04/01 08:21:58;;;;;;;19.08;6.22;;;;;;;16.73;48.59;98406.41;5093057;28;20061;-63
2024/04/01 08:24:24;;;;;;;21.92;6.20;;;;;;;16.73;48.44;98403.72;5111528;28;20040;-64
2024/04/01 08:26:50;;;;;;;16.40;6.32;;;;;;;16.78;48.24;98397.50;5111865;28;20477;-64
2024/04/01 08:29:16;;;;;;;16.90;6.65;;;;;;;16.80;48.05;98401.47;5110667;28;20496;-64
2024/04/01 08:31:44;;;;;;;15.93;6.30;;;;;;;16.89;48.15;98398.06;5111857;28;20101;-63
2024/04/01 08:34:10;;;;;;;17.50;6.53;;;;;;;16.92;48.32;98392.91;5111097;28;20508;-63
2024/04/01 08:36:38;;;;;;;18.55;6.55;;;;;;;17.01;48.05;98387.63;5076011;28;20587;-65
2024/04/01 08:39:04;;;;;;;22.00;6.97;;;;;;;17.03;47.49;98386.22;5092664;28;20087;-64
2024/04/01 08:41:44;;;;;;;19.63;6.07;;;;;;;17.09;47.87;98383.41;5118861;27;20130;-65
2024/04/01 08:44:16;;;;;;;17.60;5.85;;;;;;;17.13;47.70;98385.19;5109646;28;20043;-65
2024/04/01 08:46:51;;;;;;;19.55;6.13;;;;;;;17.20;47.81;98377.50;5109575;28;20051;-64
2024/04/01 08:49:24;;;;;;;15.95;6.40;;;;;;;17.25;47.18;98376.59;5075477;28;20040;-64
2024/04/01 08:51:56;;;;;;;20.60;6.47;;;;;;;17.33;46.59;98367.81;5075121;28;20050;-63
2024/04/01 08:54:22;;;;;;;23.35;7.25;;;;;;;17.38;46.37;98367.69;5111327;28;20463;-62
2024/04/01 08:56:47;;;;;;;20.20;7.05;;;;;;;17.49;46.51;98360.19;5093493;28;20040;-62
2024/04/01 08:59:17;;;;;;;18.77;6.53;;;;;;;17.53;46.03;98354.97;5111066;28;20051;-63
2024/04/01 09:01:43;;;;;;;16.92;5.53;;;;;;;17.60;45.92;98345.41;5093536;28;20390;-62
2024/04/01 09:04:09;;;;;;;21.17;5.90;;;;;;;17.67;45.46;98347.66;5093273;28;20042;-62
2024/04/01 09:06:35;;;;;;;19.75;5.80;;;;;;;17.72;45.20;98342.16;5111824;28;20480;-63
2024/04/01 09:09:02;;;;;;;19.48;6.05;;;;;;;17.73;45.04;98341.06;5092080;28;20458;-64
2024/04/01 09:11:28;;;;;;;16.25;5.97;;;;;;;17.78;45.10;98338.25;5093466;28;20047;-65
2024/04/01 09:13:54;;;;;;;16.75;5.88;;;;;;;17.83;44.27;98330.09;5111378;28;20424;-65
2024/04/01 09:16:27;;;;;;;15.25;5.88;;;;;;;17.86;44.67;98328.69;5110287;28;20043;-68
2024/04/01 09:18:55;;;;;;;24.50;5.88;;;;;;;17.91;43.35;98325.84;5092810;28;20039;-67
2024/04/01 09:21:23;;;;;;;16.10;4.85;;;;;;;17.97;42.68;98321.13;5110060;28;20130;-63
2024/04/01 09:23:49;;;;;;;18.15;5.25;;;;;;;18.00;41.97;98317.81;5091303;28;20150;-64
2024/04/01 09:26:15;;;;;;;16.48;4.88;;;;;;;17.98;41.81;98312.78;5092941;28;20090;-64
2024/04/01 09:28:41;;;;;;;19.85;4.97;;;;;;;18.02;41.50;98316.41;5092999;28;20055;-63
2024/04/01 09:31:11;;;;;;;20.55;4.82;;;;;;;18.08;41.08;98315.16;5111495;28;20390;-63
2024/04/01 09:33:36;;;;;;;14.20;4.93;;;;;;;18.10;40.80;98306.81;5110984;28;20070;-64
2024/04/01 09:36:04;;;;;;;12.35;4.47;;;;;;;18.21;39.93;98313.47;5076162;28;20062;-64
2024/04/01 09:38:34;;;;;;;10.82;4.50;;;;;;;18.32;39.02;98304.00;5111069;28;20039;-64
2024/04/01 09:41:00;;;;;;;;;;;;;;;18.45;38.83;98312.22;5095461;28;20078;-63
2024/04/01 09:43:26;;;;;;;14.48;4.32;;;;;;;18.53;38.68;98314.09;5120575;27;20064;-62
2024/04/01 09:45:53;;;;;;;12.77;4.15;;;;;;;18.55;37.76;98309.22;5110296;28;20051;-64
2024/04/01 09:48:22;;;;;;;14.82;4.43;;;;;;;18.70;38.07;98316.78;5103959;28;20087;-64
2024/04/01 09:50:59;;;;;;;14.32;4.43;;;;;;;18.80;37.05;98311.13;5096529;28;20048;-65
2024/04/01 09:53:27;;;;;;;15.10;4.18;;;;;;;18.79;36.82;98304.16;5080118;28;20055;-64
2024/04/01 09:56:31;;;;;;;13.45;4.05;;;;;;;18.87;36.78;98307.19;5115189;28;20044;-62
2024/04/01 09:59:15;;;;;;;11.93;4.20;;;;;;;18.91;37.06;98314.25;5115063;28;20047;-65
2024/04/01 10:02:08;;;;;;;18.23;4.68;;;;;;;18.93;36.59;98304.00;5096842;28;20043;-65
2024/04/01 10:05:08;;;;;;;13.52;4.53;;;;;;;18.97;36.82;98301.47;5114458;28;20188;-66
2024/04/01 10:07:56;;;;;;;10.48;3.92;;;;;;;19.04;37.12;98304.47;5096257;28;20055;-66
2024/04/01 10:10:53;;;;;;;16.45;4.22;;;;;;;19.12;37.04;98305.53;5114674;28;20051;-65
2024/04/01 10:13:28;;;;;;;17.35;4.22;;;;;;;19.20;37.23;98296.66;5096188;28;20088;-64
2024/04/01 10:16:11;;;;;;;15.18;5.45;;;;;;;19.31;36.75;98289.84;5114573;28;20047;-65
2024/04/01 10:19:05;;;;;;;15.88;4.28;;;;;;;19.41;36.95;98286.00;5092391;28;20514;-64
2024/04/01 10:21:46;;;;;;;14.27;4.10;;;;;;;19.48;36.16;98284.41;5059321;28;20079;-65
2024/04/01 10:24:40;;;;;;;10.20;4.00;;;;;;;19.51;37.08;98285.66;5092352;28;20107;-68
2024/04/01 10:27:06;;;;;;;16.85;4.18;;;;;;;19.58;35.95;98274.41;5076901;28;20402;-66
2024/04/01 10:29:52;;;;;;;13.98;4.53;;;;;;;19.64;35.51;98276.56;5095697;28;20035;-66
2024/04/01 10:32:50;;;;;;;12.02;4.03;;;;;;;19.71;35.86;98274.22;5096067;28;20066;-67
2024/04/01 10:35:43;;;;;;;15.73;4.38;;;;;;;19.80;35.10;98273.38;5091165;28;20050;-67
2024/04/01 10:38:18;;;;;;;13.02;4.38;;;;;;;19.87;35.10;98276.34;5113959;28;20043;-63
2024/04/01 10:40:50;;;;;;;19.15;4.43;;;;;;;19.95;34.83;98270.91;5095954;28;20052;-64
2024/04/01 10:43:28;;;;;;;18.65;4.57;;;;;;;20.05;34.85;98263.56;5095470;28;20046;-66
2024/04/01 10:46:03;;;;;;;15.57;4.68;;;;;;;20.10;35.58;98258.78;5095476;28;20047;-66
2024/04/01 10:48:31;;;;;;;13.82;3.92;;;;;;;20.06;35.00;98255.19;5077983;28;20188;-66
2024/04/01 10:51:25;;;;;;;20.50;4.82;;;;;;;20.10;34.56;98253.41;5078522;28;20492;-67
2024/04/01 10:54:00;;;;;;;15.55;4.30;;;;;;;20.22;35.51;98241.91;5094547;28;20031;-67
2024/04/01 10:56:41;;;;;;;13.65;4.45;;;;;;;20.34;34.96;98250.06;5079004;28;20044;-65
2024/04/01 10:59:06;;;;;;;20.50;4.85;;;;;;;20.46;34.01;98237.78;5113171;28;20442;-66
2024/04/01 11:02:29;;;;;;;12.88;4.60;;;;;;;20.57;33.51;98244.34;5078698;28;20138;-64
2024/04/01 11:05:10;;;;;;;15.82;4.85;;;;;;;20.62;33.04;98236.06;5029876;28;20040;-63
2024/04/01 11:07:51;;;;;;;18.00;4.90;;;;;;;20.62;32.97;98246.84;5030453;28;20041;-63
2024/04/01 11:10:38;;;;;;;15.10;4.05;;;;;;;20.59;32.29;98228.66;5082837;28;20574;-64
2024/04/01 11:13:31;;;;;;;16.02;4.70;;;;;;;20.55;32.18;98233.91;5113485;28;20039;-66
2024/04/01 11:15:59;;;;;;;15.52;4.05;;;;;;;20.61;32.72;98237.97;5092142;28;20092;-64
2024/04/01 11:18:37;;;;;;;13.40;4.45;;;;;;;20.67;32.49;98230.47;5076798;28;20047;-65
2024/04/01 11:21:02;;;;;;;24.95;7.35;;;;;;;20.66;31.96;98242.38;5113396;28;20349;-66
2024/04/01 11:23:59;;;;;;;14.70;4.03;;;;;;;20.63;31.33;98240.34;5077729;28;20040;-65
2024/04/01 11:26:54;;;;;;;19.67;4.32;;;;;;;20.56;31.46;98235.50;5094991;28;20131;-65
2024/04/01 11:29:32;;;;;;;15.77;4.47;;;;;;;20.55;31.86;98227.75;5112663;28;20032;-65